Time;durP1;ratioP1;P1;durP2;ratioP2;P2;SDS_P1;SDS_P2;PMS_P1;PMS_P2;Temp;Humidity;BMP_temperature;BMP_pressure;BME280_temperature;BME280_humidity;BME280_pressure;Samples;Min_cycle;Max_cycle;Signal;HPM_P1;HPM_P2
2021/04/05 00:00:23;;;;;;;33.22;25.45;;;7.40;99.90;;;;;;2568863;23;19997;-68
2021/04/05 00:01:23;;;;;;;31.75;26.23;;;7.40;99.90;;;;;;2569190;23;19996;-68
2021/04/05 00:02:24;;;;;;;32.42;25.05;;;7.40;99.90;;;;;;2568270;23;20005;-68
2021/04/05 00:03:25;;;;;;;32.67;24.23;;;7.40;99.90;;;;;;2569257;23;20032;-68
2021/04/05 00:04:26;;;;;;;31.60;24.25;;;7.40;99.90;;;;;;2568837;23;20005;-68
2021/04/05 00:05:37;;;;;;;32.47;24.05;;;7.50;99.90;;;;;;2569359;23;20008;-68
2021/04/05 00:06:38;;;;;;;32.28;24.08;;;7.50;99.90;;;;;;2569655;23;20072;-68
2021/04/05 00:07:41;;;;;;;33.83;26.08;;;7.50;99.90;;;;;;2569181;23;19996;-68
2021/04/05 00:08:41;;;;;;;26.83;23.35;;;7.40;99.90;;;;;;2568981;23;20004;-69
2021/04/05 00:09:42;;;;;;;29.52;23.67;;;7.50;99.90;;;;;;2568950;23;20032;-68
2021/04/05 00:10:52;;;;;;;34.75;25.05;;;7.50;99.90;;;;;;2568871;23;20072;-68
2021/04/05 00:11:53;;;;;;;30.90;24.40;;;7.50;99.90;;;;;;2568373;23;20345;-69
2021/04/05 00:12:55;;;;;;;31.25;24.58;;;7.50;99.90;;;;;;2567869;23;20005;-68
2021/04/05 00:13:57;;;;;;;37.35;25.17;;;7.50;99.90;;;;;;2568356;23;19996;-68
2021/04/05 00:14:57;;;;;;;34.78;25.90;;;7.50;99.90;;;;;;2568950;23;20004;-68
2021/04/05 00:15:58;;;;;;;31.38;26.05;;;7.50;99.90;;;;;;2568932;23;19993;-68
2021/04/05 00:16:58;;;;;;;36.42;25.48;;;7.50;99.90;;;;;;2568972;23;20062;-68
2021/04/05 00:18:00;;;;;;;35.92;24.55;;;7.50;99.90;;;;;;2568894;23;20000;-68
2021/04/05 00:19:00;;;;;;;34.10;24.88;;;7.50;99.90;;;;;;2568878;23;20319;-68
2021/04/05 00:20:07;;;;;;;39.97;25.45;;;7.50;99.90;;;;;;2568514;23;20011;-68
2021/04/05 00:21:12;;;;;;;27.95;23.27;;;7.50;99.90;;;;;;2568383;23;20012;-69
2021/04/05 00:22:12;;;;;;;34.53;24.13;;;7.50;99.90;;;;;;2568555;23;20011;-68
2021/04/05 00:23:13;;;;;;;34.08;24.42;;;7.50;99.90;;;;;;2569204;23;20031;-68
2021/04/05 00:24:14;;;;;;;39.00;24.00;;;7.50;99.90;;;;;;2569058;23;20000;-69
2021/04/05 00:25:14;;;;;;;32.20;23.73;;;7.50;99.90;;;;;;2569270;23;20002;-68
2021/04/05 00:26:15;;;;;;;31.63;24.88;;;7.50;99.90;;;;;;2568816;23;20087;-69
2021/04/05 00:27:16;;;;;;;34.72;23.23;;;7.50;99.90;;;;;;2569308;23;20108;-68
2021/04/05 00:28:17;;;;;;;34.00;24.55;;;7.50;99.90;;;;;;2569273;23;20075;-69
2021/04/05 00:29:17;;;;;;;38.10;25.40;;;7.50;99.90;;;;;;2569047;23;20005;-68
2021/04/05 00:30:27;;;;;;;32.95;23.50;;;7.50;99.90;;;;;;2569108;23;20074;-68
2021/04/05 00:31:28;;;;;;;34.25;23.25;;;7.60;99.90;;;;;;2568831;23;20401;-68
2021/04/05 00:32:28;;;;;;;31.55;22.73;;;7.50;99.90;;;;;;2568448;23;20016;-68
2021/04/05 00:33:29;;;;;;;31.83;23.25;;;7.50;99.90;;;;;;2569264;23;20333;-68
2021/04/05 00:34:30;;;;;;;31.60;21.25;;;7.60;99.90;;;;;;2568592;23;20006;-68
2021/04/05 00:35:33;;;;;;;35.60;23.65;;;7.50;99.90;;;;;;2569108;23;20614;-68
2021/04/05 00:36:33;;;;;;;32.17;22.63;;;7.60;99.90;;;;;;2568927;23;20001;-68
2021/04/05 00:37:34;;;;;;;31.15;23.33;;;7.60;99.90;;;;;;2568947;23;20005;-68
2021/04/05 00:38:34;;;;;;;34.78;24.42;;;7.60;99.90;;;;;;2568928;23;20447;-68
2021/04/05 00:39:35;;;;;;;32.47;23.55;;;7.60;99.90;;;;;;2569122;23;20036;-68
2021/04/05 00:40:45;;;;;;;34.13;24.15;;;7.60;99.90;;;;;;2568384;23;20476;-68
2021/04/05 00:41:46;;;;;;;;;;;7.60;99.90;;;;;;2569528;23;20004;-68
2021/04/05 00:42:48;;;;;;;28.52;23.15;;;7.50;99.90;;;;;;2568109;23;20316;-68
2021/04/05 00:43:49;;;;;;;33.22;22.90;;;7.50;99.90;;;;;;2568904;23;20009;-68
2021/04/05 00:44:49;;;;;;;32.63;23.15;;;7.60;99.90;;;;;;2568054;23;20027;-68
2021/04/05 00:45:50;;;;;;;33.05;23.30;;;7.50;99.90;;;;;;2568067;23;20001;-68
2021/04/05 00:46:51;;;;;;;35.50;23.13;;;7.60;99.90;;;;;;2568793;23;20005;-68
2021/04/05 00:47:53;;;;;;;30.13;22.63;;;7.60;99.90;;;;;;2568738;23;19993;-69
2021/04/05 00:48:53;;;;;;;31.63;23.15;;;7.50;99.90;;;;;;2568936;23;20016;-68
2021/04/05 00:49:54;;;;;;;31.52;23.48;;;7.50;99.90;;;;;;2568913;23;20024;-68
2021/04/05 00:51:05;;;;;;;32.28;22.77;;;7.60;99.90;;;;;;2569109;23;20022;-68
2021/04/05 00:52:06;;;;;;;30.30;23.08;;;7.60;99.90;;;;;;2568885;23;20009;-68
2021/04/05 00:53:09;;;;;;;29.08;21.35;;;7.60;99.90;;;;;;2568972;23;20058;-69
2021/04/05 00:54:10;;;;;;;35.17;22.92;;;7.60;99.90;;;;;;2567882;23;20000;-68
2021/04/05 00:55:13;;;;;;;29.00;23.08;;;7.60;99.90;;;;;;2568091;23;20150;-68
2021/04/05 00:56:15;;;;;;;29.98;23.75;;;7.60;99.90;;;;;;2568717;23;20491;-68
2021/04/05 00:57:15;;;;;;;31.88;22.08;;;7.60;99.90;;;;;;2568978;23;20079;-68
2021/04/05 00:58:17;;;;;;;29.38;22.35;;;7.60;99.90;;;;;;2568578;23;20437;-68
2021/04/05 00:59:19;;;;;;;36.20;23.27;;;7.60;99.90;;;;;;2568887;23;20011;-68
2021/04/05 01:00:44;;;;;;;38.10;22.92;;;7.60;99.90;;;;;;2569413;23;20506;-69
2021/04/05 01:01:45;;;;;;;27.73;22.48;;;7.60;99.90;;;;;;2555571;23;20444;-69
2021/04/05 01:03:06;;;;;;;34.33;22.95;;;7.60;99.90;;;;;;2554937;23;20001;-68
2021/04/05 01:04:07;;;;;;;29.17;22.33;;;7.60;99.90;;;;;;2567536;23;20028;-68
2021/04/05 01:05:09;;;;;;;30.67;21.73;;;7.60;99.90;;;;;;2559376;23;20008;-69
2021/04/05 01:06:14;;;;;;;30.92;21.25;;;7.60;99.90;;;;;;2567585;23;20407;-69
2021/04/05 01:07:14;;;;;;;27.90;21.92;;;7.60;99.90;;;;;;2568066;23;20472;-68
2021/04/05 01:08:16;;;;;;;34.17;22.23;;;7.60;99.90;;;;;;2568165;23;20400;-68
2021/04/05 01:09:17;;;;;;;31.70;23.02;;;7.60;99.90;;;;;;2568217;23;20016;-68
2021/04/05 01:10:18;;;;;;;31.88;22.38;;;7.60;99.90;;;;;;2568839;23;20004;-69
2021/04/05 01:11:23;;;;;;;33.22;22.20;;;7.60;99.90;;;;;;2568716;23;20004;-68
2021/04/05 01:12:23;;;;;;;28.33;22.02;;;7.60;99.90;;;;;;2568004;23;20091;-68
2021/04/05 01:13:24;;;;;;;27.98;23.02;;;7.60;99.90;;;;;;2569013;23;20016;-68
2021/04/05 01:14:25;;;;;;;37.25;23.38;;;7.60;99.90;;;;;;2568927;23;20012;-69
2021/04/05 01:15:26;;;;;;;30.70;22.67;;;7.60;99.90;;;;;;2569122;23;20444;-68
2021/04/05 01:16:29;;;;;;;31.00;22.67;;;7.60;99.90;;;;;;2567461;23;20012;-68
2021/04/05 01:17:30;;;;;;;29.20;23.25;;;7.60;99.90;;;;;;2568108;23;20063;-68
2021/04/05 01:18:31;;;;;;;29.80;22.35;;;7.60;99.90;;;;;;2568683;23;20032;-68
2021/04/05 01:19:32;;;;;;;33.28;23.20;;;7.60;99.90;;;;;;2567777;23;20056;-68
2021/04/05 01:20:33;;;;;;;34.22;22.98;;;7.60;99.90;;;;;;2568047;23;20417;-68
2021/04/05 01:21:36;;;;;;;33.30;23.83;;;7.60;99.90;;;;;;2569041;23;20008;-68
2021/04/05 01:22:38;;;;;;;39.03;23.85;;;7.60;99.90;;;;;;2567444;23;20411;-68
2021/04/05 01:23:39;;;;;;;31.20;23.25;;;7.70;99.90;;;;;;2567911;23;20472;-68
2021/04/05 01:24:40;;;;;;;38.25;23.70;;;7.60;99.90;;;;;;2568815;23;20316;-68
2021/04/05 01:25:40;;;;;;;33.53;24.30;;;7.70;99.90;;;;;;2568870;23;19997;-69
2021/04/05 01:26:41;;;;;;;31.13;23.85;;;7.70;99.90;;;;;;2568646;23;20831;-68
2021/04/05 01:27:42;;;;;;;36.83;23.95;;;7.60;99.90;;;;;;2569205;23;20000;-69
2021/04/05 01:28:43;;;;;;;32.70;23.52;;;7.60;99.90;;;;;;2568607;23;19996;-68
2021/04/05 01:29:43;;;;;;;34.55;25.02;;;7.60;99.90;;;;;;2568073;23;20012;-68
2021/04/05 01:30:48;;;;;;;32.25;24.05;;;7.60;99.90;;;;;;2567878;23;20005;-69
2021/04/05 01:31:48;;;;;;;34.00;23.90;;;7.60;99.90;;;;;;2568588;23;20008;-68
2021/04/05 01:32:49;;;;;;;31.48;23.50;;;7.60;99.90;;;;;;2567751;23;19993;-68
2021/04/05 01:33:51;;;;;;;30.38;23.55;;;7.60;99.90;;;;;;2568862;23;20502;-68
2021/04/05 01:34:52;;;;;;;31.50;23.50;;;7.60;99.90;;;;;;2568718;23;20321;-68
2021/04/05 01:36:07;;;;;;;35.65;25.15;;;7.60;99.90;;;;;;2568944;23;20000;-68
2021/04/05 01:37:07;;;;;;;33.53;23.70;;;7.60;99.90;;;;;;2568475;23;20005;-68
2021/04/05 01:38:09;;;;;;;32.72;24.13;;;7.60;99.90;;;;;;2568884;23;20000;-68
2021/04/05 01:39:10;;;;;;;30.30;23.13;;;7.60;99.90;;;;;;2567884;23;20001;-68
2021/04/05 01:40:11;;;;;;;38.10;23.65;;;7.60;99.90;;;;;;2568557;23;20291;-68
2021/04/05 01:41:17;;;;;;;34.92;23.42;;;7.60;99.90;;;;;;2568490;23;20084;-68
2021/04/05 01:42:18;;;;;;;35.83;23.92;;;7.60;99.90;;;;;;2567876;23;20020;-68
2021/04/05 01:43:18;;;;;;;38.53;23.67;;;7.60;99.90;;;;;;2568652;23;20007;-68
2021/04/05 01:44:19;;;;;;;35.85;23.85;;;7.60;99.90;;;;;;2568624;23;20425;-69
2021/04/05 01:45:20;;;;;;;30.98;21.75;;;7.60;99.90;;;;;;2568567;23;20008;-69
2021/04/05 01:46:21;;;;;;;34.60;23.67;;;7.60;99.90;;;;;;2568823;23;20031;-68
2021/04/05 01:47:22;;;;;;;33.58;22.25;;;7.60;99.90;;;;;;2568678;23;20000;-68
2021/04/05 01:48:24;;;;;;;37.78;22.45;;;7.60;99.90;;;;;;2568991;23;20000;-69
2021/04/05 01:49:25;;;;;;;34.08;23.77;;;7.50;99.90;;;;;;2568654;23;20023;-68
2021/04/05 01:50:26;;;;;;;33.53;22.95;;;7.60;99.90;;;;;;2568509;23;20032;-68
2021/04/05 01:51:27;;;;;;;34.08;24.15;;;7.50;99.90;;;;;;2568402;23;20027;-68
2021/04/05 01:52:27;;;;;;;38.95;23.33;;;7.50;99.90;;;;;;2566951;23;20479;-68
2021/04/05 01:53:28;;;;;;;29.27;23.25;;;7.50;99.90;;;;;;2567926;23;20004;-68
2021/04/05 01:54:32;;;;;;;37.47;23.48;;;7.50;99.90;;;;;;2568342;23;20107;-68
2021/04/05 01:55:34;;;;;;;35.25;22.60;;;7.60;99.90;;;;;;2568491;23;20005;-68
2021/04/05 01:56:35;;;;;;;35.47;24.25;;;7.50;99.90;;;;;;2568543;23;20286;-68
2021/04/05 01:57:36;;;;;;;32.72;23.70;;;7.50;99.90;;;;;;2568442;23;20005;-68
2021/04/05 01:58:38;;;;;;;32.95;22.92;;;7.50;99.90;;;;;;2568866;23;20051;-68
2021/04/05 01:59:39;;;;;;;33.47;24.05;;;7.50;99.90;;;;;;2568506;23;20007;-69
2021/04/05 02:00:39;;;;;;;35.25;23.70;;;7.50;99.90;;;;;;2568990;23;20001;-68
2021/04/05 02:01:40;;;;;;;33.13;24.63;;;7.50;99.90;;;;;;2570329;23;20340;-68
2021/04/05 02:02:44;;;;;;;34.78;23.90;;;7.50;99.90;;;;;;2569763;23;20072;-68
2021/04/05 02:03:46;;;;;;;33.75;22.77;;;7.50;99.90;;;;;;2570467;23;20001;-68
2021/04/05 02:04:47;;;;;;;35.47;23.83;;;7.50;99.90;;;;;;2569966;23;20081;-68
2021/04/05 02:05:52;;;;;;;39.60;24.13;;;7.50;99.90;;;;;;2570303;23;20436;-68
2021/04/05 02:06:53;;;;;;;35.30;23.33;;;7.50;99.90;;;;;;2570201;23;20011;-68
2021/04/05 02:07:53;;;;;;;35.45;23.75;;;7.50;99.90;;;;;;2570318;23;20000;-68
2021/04/05 02:08:55;;;;;;;35.80;23.33;;;7.50;99.90;;;;;;2570770;23;20027;-68
2021/04/05 02:09:56;;;;;;;34.20;23.38;;;7.50;99.90;;;;;;2570446;23;20019;-68
2021/04/05 02:11:02;;;;;;;33.10;22.05;;;7.40;99.90;;;;;;2570502;23;20001;-68
2021/04/05 02:12:03;;;;;;;35.55;23.13;;;7.40;99.90;;;;;;2570826;23;19996;-69
2021/04/05 02:13:04;;;;;;;29.10;21.95;;;7.50;99.90;;;;;;2569705;23;20333;-69
2021/04/05 02:14:07;;;;;;;33.97;22.83;;;7.50;99.90;;;;;;2571125;23;20023;-68
2021/04/05 02:15:11;;;;;;;34.35;22.60;;;7.40;99.90;;;;;;2570021;23;20009;-68
2021/04/05 02:16:17;;;;;;;31.35;23.00;;;7.50;99.90;;;;;;2570257;23;20005;-68
2021/04/05 02:17:18;;;;;;;30.90;22.67;;;7.50;99.90;;;;;;2570321;23;20005;-68
2021/04/05 02:18:21;;;;;;;34.10;22.63;;;7.50;99.90;;;;;;2570465;23;20031;-68
2021/04/05 02:19:22;;;;;;;38.08;23.83;;;7.50;99.90;;;;;;2570401;23;20001;-68
2021/04/05 02:20:22;;;;;;;34.80;23.05;;;7.50;99.90;;;;;;2569663;23;19997;-68
2021/04/05 02:21:26;;;;;;;31.65;23.50;;;7.50;99.90;;;;;;2582282;23;20047;-69
2021/04/05 02:22:27;;;;;;;39.50;22.58;;;7.50;99.90;;;;;;2592909;22;20304;-68
2021/04/05 02:23:27;;;;;;;33.85;23.30;;;7.50;99.90;;;;;;2571121;23;20039;-68
2021/04/05 02:24:29;;;;;;;30.50;23.30;;;7.50;99.90;;;;;;2570739;23;20062;-68
2021/04/05 02:25:31;;;;;;;32.05;23.30;;;7.50;99.90;;;;;;2571405;23;20051;-68
2021/04/05 02:26:33;;;;;;;35.35;23.70;;;7.50;99.90;;;;;;2571182;23;20047;-68
2021/04/05 02:27:34;;;;;;;36.15;22.58;;;7.50;99.90;;;;;;2571452;23;20025;-68
2021/04/05 02:28:45;;;;;;;35.22;23.00;;;7.50;99.90;;;;;;2571138;23;20011;-68
2021/04/05 02:29:46;;;;;;;41.95;23.80;;;7.50;99.90;;;;;;2571336;23;20004;-69
2021/04/05 02:30:47;;;;;;;30.13;22.20;;;7.50;99.90;;;;;;2571232;23;20015;-68
2021/04/05 02:31:48;;;;;;;37.33;23.15;;;7.50;99.90;;;;;;2571088;23;20007;-68
2021/04/05 02:33:03;;;;;;;35.42;22.85;;;7.50;99.90;;;;;;2570712;23;20008;-68
2021/04/05 02:34:05;;;;;;;29.23;21.80;;;7.40;99.90;;;;;;2571104;23;20007;-68
2021/04/05 02:35:07;;;;;;;35.17;22.75;;;7.50;99.90;;;;;;2571337;23;20483;-68
2021/04/05 02:36:10;;;;;;;31.83;22.65;;;7.50;99.90;;;;;;2571360;23;20345;-68
2021/04/05 02:37:13;;;;;;;36.20;23.92;;;7.50;99.90;;;;;;2570941;23;20015;-69
2021/04/05 02:38:15;;;;;;;32.08;23.35;;;7.50;99.90;;;;;;2570305;23;20005;-68
2021/04/05 02:39:16;;;;;;;29.17;22.15;;;7.50;99.90;;;;;;2570243;23;20412;-69
2021/04/05 02:40:17;;;;;;;33.00;22.52;;;7.50;99.90;;;;;;2571343;23;20360;-68
2021/04/05 02:41:20;;;;;;;33.78;23.25;;;7.50;99.90;;;;;;2570848;23;20062;-68
2021/04/05 02:42:22;;;;;;;30.70;21.50;;;7.50;99.90;;;;;;2570694;23;20079;-68
2021/04/05 02:43:24;;;;;;;32.28;23.70;;;7.50;99.90;;;;;;2571148;23;20001;-69
2021/04/05 02:44:25;;;;;;;31.00;22.58;;;7.50;99.90;;;;;;2571016;23;20004;-68
2021/04/05 02:45:28;;;;;;;36.20;23.42;;;7.60;99.90;;;;;;2570029;23;20039;-68
2021/04/05 02:46:33;;;;;;;38.33;22.65;;;7.60;99.90;;;;;;2545978;23;20013;-68
2021/04/05 02:47:36;;;;;;;33.78;23.67;;;7.60;99.90;;;;;;2559113;23;20185;-68
2021/04/05 02:48:41;;;;;;;34.33;22.25;;;7.60;99.90;;;;;;2570553;23;20008;-68
2021/04/05 02:49:44;;;;;;;32.88;21.83;;;7.60;99.90;;;;;;2570397;23;20054;-68
2021/04/05 02:50:45;;;;;;;30.55;23.35;;;7.60;99.90;;;;;;2570534;23;20048;-68
2021/04/05 02:51:48;;;;;;;32.47;22.13;;;7.60;99.90;;;;;;2570403;23;19997;-69
2021/04/05 02:52:50;;;;;;;39.75;23.88;;;7.60;99.90;;;;;;2570333;23;20356;-68
2021/04/05 02:53:57;;;;;;;30.98;21.67;;;7.60;99.90;;;;;;2570061;23;20104;-68
2021/04/05 02:54:58;;;;;;;35.25;23.35;;;7.60;99.90;;;;;;2558986;23;20003;-68
2021/04/05 02:56:03;;;;;;;31.67;22.55;;;7.60;99.90;;;;;;2570387;23;20449;-69
2021/04/05 02:57:04;;;;;;;33.15;22.48;;;7.60;99.90;;;;;;2571112;23;20420;-68
2021/04/05 02:58:06;;;;;;;35.67;22.27;;;7.60;99.90;;;;;;2571159;23;20368;-68
2021/04/05 02:59:08;;;;;;;32.83;22.60;;;7.60;99.90;;;;;;2571144;23;19997;-68
2021/04/05 03:00:14;;;;;;;32.05;22.38;;;7.60;99.90;;;;;;2571213;23;20024;-68
2021/04/05 03:01:15;;;;;;;30.55;21.65;;;7.60;99.90;;;;;;2571074;23;19993;-68
2021/04/05 03:02:16;;;;;;;36.45;22.77;;;7.60;99.90;;;;;;2568729;23;20005;-68
2021/04/05 03:03:18;;;;;;;35.22;22.65;;;7.60;99.90;;;;;;2569482;23;20024;-68
2021/04/05 03:04:20;;;;;;;31.80;22.77;;;7.60;99.90;;;;;;2568845;23;20076;-68
2021/04/05 03:05:23;;;;;;;34.08;22.83;;;7.60;99.90;;;;;;2569866;23;20028;-68
2021/04/05 03:06:26;;;;;;;34.63;22.13;;;7.60;99.90;;;;;;2569520;23;20005;-68
2021/04/05 03:07:26;;;;;;;32.47;22.92;;;7.70;99.90;;;;;;2570062;23;20013;-68
2021/04/05 03:08:27;;;;;;;32.85;21.67;;;7.70;99.90;;;;;;2570278;23;20008;-68
2021/04/05 03:09:28;;;;;;;37.58;22.80;;;7.70;99.90;;;;;;2570053;23;20004;-68
2021/04/05 03:10:29;;;;;;;35.92;23.02;;;7.70;99.90;;;;;;2569986;23;20024;-68
2021/04/05 03:11:31;;;;;;;34.53;22.30;;;7.70;99.90;;;;;;2569991;23;20008;-69
2021/04/05 03:12:34;;;;;;;38.22;22.92;;;7.70;99.90;;;;;;2568516;23;20410;-68
2021/04/05 03:13:37;;;;;;;30.25;22.15;;;7.70;99.90;;;;;;2570108;23;20011;-68
2021/04/05 03:14:38;;;;;;;36.22;22.90;;;7.70;99.90;;;;;;2568696;23;20015;-68
2021/04/05 03:15:39;;;;;;;38.35;23.65;;;7.70;99.90;;;;;;2569284;23;20009;-68
2021/04/05 03:16:42;;;;;;;31.58;23.60;;;7.70;99.90;;;;;;2569595;23;20000;-68
2021/04/05 03:17:43;;;;;;;30.02;21.73;;;7.70;99.90;;;;;;2569976;23;20028;-68
2021/04/05 03:18:45;;;;;;;34.20;23.45;;;7.70;99.90;;;;;;2569421;23;20048;-68
2021/04/05 03:19:47;;;;;;;36.08;24.10;;;7.70;99.90;;;;;;2569455;23;19992;-68
2021/04/05 03:20:48;;;;;;;33.80;23.98;;;7.70;99.90;;;;;;2568914;23;20070;-68
2021/04/05 03:21:49;;;;;;;36.45;24.02;;;7.70;99.90;;;;;;2568728;23;20047;-69
2021/04/05 03:22:50;;;;;;;36.40;23.55;;;7.80;99.90;;;;;;2555413;23;20012;-68
2021/04/05 03:23:52;;;;;;;34.17;23.08;;;7.80;99.90;;;;;;2556703;23;20102;-68
2021/04/05 03:24:53;;;;;;;40.17;24.08;;;7.80;99.90;;;;;;2568304;23;20000;-68
2021/04/05 03:25:53;;;;;;;33.75;23.23;;;7.80;99.90;;;;;;2568825;23;20405;-69
2021/04/05 03:26:54;;;;;;;36.38;22.98;;;7.80;99.90;;;;;;2569547;23;20008;-68
2021/04/05 03:27:55;;;;;;;41.83;25.13;;;7.80;99.90;;;;;;2568840;23;20076;-68
2021/04/05 03:28:56;;;;;;;39.85;24.67;;;7.90;99.90;;;;;;2555866;23;20433;-69
2021/04/05 03:30:00;;;;;;;38.25;23.75;;;7.90;99.90;;;;;;2556158;23;20076;-68
2021/04/05 03:31:02;;;;;;;41.42;24.77;;;7.90;99.90;;;;;;2569462;23;20071;-68
2021/04/05 03:32:05;;;;;;;32.38;24.05;;;7.90;99.90;;;;;;2569509;23;20076;-68
2021/04/05 03:33:42;;;;;;;39.53;24.58;;;7.90;99.90;;;;;;2568892;23;20036;-68
2021/04/05 03:34:49;;;;;;;35.78;23.92;;;7.90;99.90;;;;;;2569491;23;20421;-68
2021/04/05 03:35:55;;;;;;;33.63;23.77;;;7.90;99.90;;;;;;2569374;23;20441;-68
2021/04/05 03:37:02;;;;;;;39.45;23.67;;;7.90;99.90;;;;;;2569155;23;20321;-68
2021/04/05 03:38:04;;;;;;;35.92;23.13;;;7.90;99.90;;;;;;2569485;23;20370;-68
2021/04/05 03:39:05;;;;;;;33.47;23.95;;;7.90;99.90;;;;;;2569153;23;20133;-68
2021/04/05 03:40:08;;;;;;;37.58;24.73;;;8.00;99.90;;;;;;2569576;23;20095;-68
2021/04/05 03:41:38;;;;;;;36.60;25.25;;;8.00;99.90;;;;;;2569227;23;20008;-68
2021/04/05 03:42:43;;;;;;;;;;;7.90;99.90;;;;;;2569332;23;20001;-68
2021/04/05 03:43:57;;;;;;;33.88;23.55;;;7.80;99.90;;;;;;2569388;23;19903;-68
2021/04/05 03:45:16;;;;;;;37.85;23.63;;;7.90;99.90;;;;;;2569656;23;20043;-68
2021/04/05 03:46:27;;;;;;;38.22;24.88;;;7.90;99.90;;;;;;2569472;23;20005;-68
2021/04/05 03:47:49;;;;;;;39.22;24.05;;;7.90;99.90;;;;;;2569127;23;20488;-68
2021/04/05 03:49:12;;;;;;;33.47;22.45;;;7.90;99.90;;;;;;2569199;23;20008;-68
2021/04/05 03:50:23;;;;;;;36.90;23.98;;;7.90;99.90;;;;;;2569175;23;20039;-68
2021/04/05 03:51:28;;;;;;;;;;;8.00;99.90;;;;;;2569146;23;20322;-68
2021/04/05 03:52:37;;;;;;;37.72;24.20;;;7.90;99.90;;;;;;2567670;23;19958;-68
2021/04/05 03:53:52;;;;;;;36.00;23.27;;;7.90;99.90;;;;;;2569785;23;20008;-68
2021/04/05 03:54:59;;;;;;;35.50;23.35;;;7.90;99.90;;;;;;2569512;23;20099;-68
2021/04/05 03:56:05;;;;;;;34.30;23.55;;;7.90;99.90;;;;;;2569430;23;20021;-68
2021/04/05 03:57:12;;;;;;;42.85;24.65;;;8.00;99.90;;;;;;2569212;23;20012;-68
2021/04/05 03:58:16;;;;;;;42.50;25.63;;;8.00;99.90;;;;;;2569431;23;20027;-68
2021/04/05 03:59:27;;;;;;;33.08;23.20;;;8.00;99.90;;;;;;2568500;23;20008;-68
2021/04/05 04:00:30;;;;;;;36.63;23.63;;;8.00;99.90;;;;;;2568707;23;20001;-68
2021/04/05 04:01:32;;;;;;;35.05;23.58;;;8.10;99.90;;;;;;2569133;23;20007;-68
2021/04/05 04:02:41;;;;;;;32.22;21.98;;;8.10;99.90;;;;;;2567747;23;20011;-68
2021/04/05 04:04:33;;;;;;;35.30;21.80;;;8.10;99.90;;;;;;2568910;23;20437;-68
2021/04/05 04:05:18;;;;;;;32.75;23.20;;;8.10;99.90;;;;;;2553492;23;20437;-68
2021/04/05 04:06:25;;;;;;;38.90;23.23;;;8.10;99.90;;;;;;2569100;23;20084;-68
2021/04/05 04:08:37;;;;;;;30.92;23.67;;;8.10;99.90;;;;;;2569689;23;20015;-68
2021/04/05 04:09:39;;;;;;;35.63;23.08;;;8.10;99.90;;;;;;2569396;23;20004;-68
2021/04/05 04:10:45;;;;;;;36.97;22.90;;;8.20;99.90;;;;;;2569319;23;20363;-68
2021/04/05 04:11:50;;;;;;;36.92;23.23;;;8.20;99.90;;;;;;2569371;23;20088;-68
2021/04/05 04:12:52;;;;;;;36.17;24.20;;;8.20;99.90;;;;;;2568809;23;20001;-69
2021/04/05 04:13:55;;;;;;;35.75;22.80;;;8.20;99.90;;;;;;2569218;23;20007;-68
2021/04/05 04:14:58;;;;;;;36.25;23.70;;;8.20;99.90;;;;;;2568922;23;20001;-68
2021/04/05 04:15:59;;;;;;;37.70;22.95;;;8.20;99.90;;;;;;2569203;23;20764;-68
2021/04/05 04:17:00;;;;;;;38.00;24.15;;;8.20;99.90;;;;;;2569195;23;20349;-68
2021/04/05 04:18:03;;;;;;;35.15;22.52;;;8.20;99.90;;;;;;2569305;23;20004;-68
2021/04/05 04:19:06;;;;;;;29.77;21.63;;;8.20;99.90;;;;;;2569372;23;20413;-68
2021/04/05 04:20:12;;;;;;;33.85;22.25;;;8.20;99.90;;;;;;2569846;23;20043;-68
2021/04/05 04:21:13;;;;;;;36.72;22.90;;;8.30;99.90;;;;;;2569249;23;20280;-68
2021/04/05 04:22:15;;;;;;;32.35;22.42;;;8.30;99.90;;;;;;2568956;23;20000;-68
2021/04/05 04:23:16;;;;;;;36.55;23.35;;;8.30;99.90;;;;;;2568875;23;20001;-68
2021/04/05 04:24:17;;;;;;;30.95;22.70;;;8.30;99.90;;;;;;2569282;23;20008;-68
2021/04/05 04:25:17;;;;;;;32.35;22.38;;;8.30;99.90;;;;;;2569278;23;20011;-69
2021/04/05 04:26:18;;;;;;;29.60;21.38;;;8.30;99.90;;;;;;2569108;23;20312;-68
2021/04/05 04:27:18;;;;;;;34.60;21.13;;;8.30;99.90;;;;;;2568999;23;20015;-68
2021/04/05 04:28:19;;;;;;;34.42;21.35;;;8.30;99.90;;;;;;2569316;23;20417;-68
2021/04/05 04:29:21;;;;;;;32.92;22.45;;;8.30;99.90;;;;;;2569229;23;20015;-68
2021/04/05 04:30:33;;;;;;;33.78;21.23;;;8.30;99.90;;;;;;2569701;23;20279;-68
2021/04/05 04:31:33;;;;;;;32.63;22.02;;;8.30;99.90;;;;;;2569070;23;20010;-68
2021/04/05 04:32:34;;;;;;;29.10;21.02;;;8.30;99.90;;;;;;2569004;23;20009;-68
2021/04/05 04:33:34;;;;;;;31.58;21.10;;;8.30;99.90;;;;;;2569334;23;20082;-68
2021/04/05 04:34:35;;;;;;;34.25;21.15;;;8.30;99.90;;;;;;2569240;23;20357;-68
2021/04/05 04:35:38;;;;;;;31.90;21.17;;;8.30;99.90;;;;;;2569070;23;20075;-68
2021/04/05 04:36:38;;;;;;;33.97;21.02;;;8.30;99.90;;;;;;2569100;23;20711;-68
2021/04/05 04:37:40;;;;;;;32.80;21.00;;;8.30;99.90;;;;;;2569268;23;20009;-68
2021/04/05 04:38:41;;;;;;;34.53;22.58;;;8.30;99.90;;;;;;2569100;23;20001;-68
2021/04/05 04:39:42;;;;;;;35.22;21.90;;;8.40;99.90;;;;;;2569146;23;19993;-69
2021/04/05 04:40:45;;;;;;;34.33;22.02;;;8.30;99.90;;;;;;2568540;23;20000;-68
2021/04/05 04:41:48;;;;;;;35.17;21.33;;;8.40;99.90;;;;;;2568082;23;20032;-68
2021/04/05 04:42:49;;;;;;;33.33;20.42;;;8.40;99.90;;;;;;2568809;23;19997;-68
2021/04/05 04:44:01;;;;;;;30.52;21.20;;;8.40;99.90;;;;;;2568909;23;20436;-68
2021/04/05 04:45:02;;;;;;;38.33;22.27;;;8.40;99.90;;;;;;2569139;23;20000;-68
2021/04/05 04:46:03;;;;;;;33.35;21.55;;;8.40;99.90;;;;;;2568786;23;20028;-68
2021/04/05 04:47:04;;;;;;;32.53;20.58;;;8.40;99.90;;;;;;2568954;23;20072;-68
2021/04/05 04:48:05;;;;;;;32.92;22.27;;;8.40;99.90;;;;;;2569079;23;20368;-68
2021/04/05 04:49:11;;;;;;;34.72;20.65;;;8.40;99.90;;;;;;2569189;23;20001;-68
2021/04/05 04:50:15;;;;;;;41.13;21.98;;;8.40;99.90;;;;;;2569160;23;20003;-68
2021/04/05 04:51:16;;;;;;;34.17;21.55;;;8.40;99.90;;;;;;2568850;23;20001;-68
2021/04/05 04:52:20;;;;;;;34.13;21.63;;;8.50;99.90;;;;;;2568159;23;20076;-68
2021/04/05 04:53:20;;;;;;;35.00;20.83;;;8.40;99.90;;;;;;2568409;23;20008;-68
2021/04/05 04:54:21;;;;;;;31.45;22.15;;;8.50;99.90;;;;;;2568033;23;20021;-68
2021/04/05 04:55:23;;;;;;;31.45;20.60;;;8.50;99.90;;;;;;2569495;23;20051;-68
2021/04/05 04:56:24;;;;;;;33.63;21.35;;;8.50;99.90;;;;;;2569307;23;20076;-68
2021/04/05 04:57:24;;;;;;;37.22;22.80;;;8.50;99.90;;;;;;2568951;23;20020;-68
2021/04/05 04:58:25;;;;;;;39.75;21.05;;;8.50;99.90;;;;;;2569477;23;20023;-68
2021/04/05 04:59:26;;;;;;;35.10;21.55;;;8.50;99.90;;;;;;2568862;23;20004;-68
2021/04/05 05:00:31;;;;;;;35.83;22.08;;;8.50;99.90;;;;;;2569545;23;20004;-69
2021/04/05 05:01:33;;;;;;;35.78;21.73;;;8.50;99.90;;;;;;2568847;23;20023;-68
2021/04/05 05:02:44;;;;;;;32.95;22.20;;;8.50;99.90;;;;;;2567559;23;20004;-68
2021/04/05 05:03:51;;;;;;;33.55;21.27;;;8.50;99.90;;;;;;2568423;23;19997;-68
2021/04/05 05:04:53;;;;;;;40.50;22.48;;;8.50;99.90;;;;;;2568570;23;20074;-68
2021/04/05 05:05:56;;;;;;;35.65;22.83;;;8.50;99.90;;;;;;2569069;23;20007;-68
2021/04/05 05:07:00;;;;;;;38.05;22.75;;;8.50;99.90;;;;;;2568829;23;20083;-68
2021/04/05 05:08:01;;;;;;;37.17;21.63;;;8.50;99.90;;;;;;2568624;23;20012;-69
2021/04/05 05:09:03;;;;;;;37.70;21.30;;;8.50;99.90;;;;;;2569403;23;20050;-68
2021/04/05 05:10:06;;;;;;;33.28;24.30;;;8.50;99.90;;;;;;2569115;23;20071;-68
2021/04/05 05:11:07;;;;;;;32.20;22.27;;;8.50;99.90;;;;;;2569102;23;20076;-69
2021/04/05 05:12:09;;;;;;;35.80;22.73;;;8.50;99.90;;;;;;2568575;23;20005;-68
2021/04/05 05:13:09;;;;;;;34.45;21.77;;;8.50;99.90;;;;;;2568816;23;20000;-68
2021/04/05 05:14:13;;;;;;;39.97;22.65;;;8.50;99.90;;;;;;2569293;23;20001;-68
2021/04/05 05:15:15;;;;;;;37.33;23.15;;;8.60;99.90;;;;;;2568534;23;20028;-68
2021/04/05 05:16:16;;;;;;;35.88;23.42;;;8.60;99.90;;;;;;2569218;23;20030;-68
2021/04/05 05:17:18;;;;;;;36.65;23.45;;;8.60;99.90;;;;;;2568128;23;20035;-69
2021/04/05 05:18:18;;;;;;;35.03;22.40;;;8.60;99.90;;;;;;2569058;23;20009;-68
2021/04/05 05:19:20;;;;;;;31.77;21.90;;;8.60;99.90;;;;;;2568842;23;20005;-68
2021/04/05 05:20:20;;;;;;;38.88;22.67;;;8.60;99.90;;;;;;2569128;23;20001;-68
2021/04/05 05:21:33;;;;;;;39.28;23.65;;;8.60;99.90;;;;;;2569301;23;20000;-68
2021/04/05 05:22:37;;;;;;;43.00;22.42;;;8.60;99.90;;;;;;2568269;23;20001;-68
2021/04/05 05:23:40;;;;;;;35.70;22.58;;;8.50;99.90;;;;;;2568326;23;20004;-68
2021/04/05 05:24:43;;;;;;;36.90;23.70;;;8.60;99.90;;;;;;2568247;23;19992;-68
2021/04/05 05:25:46;;;;;;;37.58;23.52;;;8.60;99.90;;;;;;2568867;23;20465;-68